sensor_id;sensor_type;location;lat;lon;timestamp;P1;durP1;ratioP1;P2;durP2;ratioP2
64915;SDS011;51427;-27.442;153.014;2023-05-29T00:00:57;4.25;;;1.48;;
64915;SDS011;51427;-27.442;153.014;2023-05-29T00:03:25;1.30;;;1.08;;
64915;SDS011;51427;-27.442;153.014;2023-05-29T00:05:53;2.85;;;1.00;;
64915;SDS011;51427;-27.442;153.014;2023-05-29T00:08:21;1.40;;;1.30;;
64915;SDS011;51427;-27.442;153.014;2023-05-29T00:10:49;1.75;;;0.98;;
64915;SDS011;51427;-27.442;153.014;2023-05-29T00:13:16;2.65;;;1.40;;
64915;SDS011;51427;-27.442;153.014;2023-05-29T00:15:44;1.88;;;1.23;;
64915;SDS011;51427;-27.442;153.014;2023-05-29T00:18:12;1.73;;;1.00;;
64915;SDS011;51427;-27.442;153.014;2023-05-29T00:20:39;1.13;;;0.98;;
64915;SDS011;51427;-27.442;153.014;2023-05-29T00:23:07;2.40;;;1.13;;
64915;SDS011;51427;-27.442;153.014;2023-05-29T00:25:35;3.03;;;2.03;;
64915;SDS011;51427;-27.442;153.014;2023-05-29T00:28:03;2.05;;;1.23;;
64915;SDS011;51427;-27.442;153.014;2023-05-29T00:30:31;2.08;;;1.65;;
64915;SDS011;51427;-27.442;153.014;2023-05-29T00:32:59;2.75;;;1.50;;
64915;SDS011;51427;-27.442;153.014;2023-05-29T00:35:26;3.47;;;1.70;;
64915;SDS011;51427;-27.442;153.014;2023-05-29T00:37:54;2.85;;;1.23;;
64915;SDS011;51427;-27.442;153.014;2023-05-29T00:40:22;1.20;;;0.90;;
64915;SDS011;51427;-27.442;153.014;2023-05-29T00:42:49;1.92;;;1.33;;
64915;SDS011;51427;-27.442;153.014;2023-05-29T00:45:17;1.38;;;1.27;;
64915;SDS011;51427;-27.442;153.014;2023-05-29T00:47:45;1.83;;;1.38;;
64915;SDS011;51427;-27.442;153.014;2023-05-29T00:50:12;1.33;;;0.60;;
64915;SDS011;51427;-27.442;153.014;2023-05-29T00:52:41;1.83;;;0.73;;
64915;SDS011;51427;-27.442;153.014;2023-05-29T00:55:11;1.35;;;0.88;;
64915;SDS011;51427;-27.442;153.014;2023-05-29T00:57:39;1.50;;;1.02;;
64915;SDS011;51427;-27.442;153.014;2023-05-29T01:00:08;1.23;;;1.02;;
64915;SDS011;51427;-27.442;153.014;2023-05-29T01:02:39;2.53;;;1.05;;
64915;SDS011;51427;-27.442;153.014;2023-05-29T01:05:11;1.02;;;0.73;;
64915;SDS011;51427;-27.442;153.014;2023-05-29T01:07:39;1.95;;;0.88;;
64915;SDS011;51427;-27.442;153.014;2023-05-29T01:10:07;1.48;;;0.60;;
64915;SDS011;51427;-27.442;153.014;2023-05-29T01:29:27;0.50;;;0.50;;
64915;SDS011;51427;-27.442;153.014;2023-05-29T01:31:57;1.27;;;0.40;;
64915;SDS011;51427;-27.442;153.014;2023-05-29T01:34:27;1.35;;;0.93;;
64915;SDS011;51427;-27.442;153.014;2023-05-29T01:36:55;1.42;;;0.52;;
64915;SDS011;51427;-27.442;153.014;2023-05-29T01:39:23;0.98;;;0.40;;
64915;SDS011;51427;-27.442;153.014;2023-05-29T01:41:51;2.97;;;1.92;;
64915;SDS011;51427;-27.442;153.014;2023-05-29T01:44:19;1.75;;;1.13;;
64915;SDS011;51427;-27.442;153.014;2023-05-29T01:46:49;3.05;;;0.95;;
64915;SDS011;51427;-27.442;153.014;2023-05-29T01:49:17;1.38;;;0.80;;
64915;SDS011;51427;-27.442;153.014;2023-05-29T01:51:45;1.42;;;0.90;;
64915;SDS011;51427;-27.442;153.014;2023-05-29T01:54:13;1.10;;;0.63;;
64915;SDS011;51427;-27.442;153.014;2023-05-29T01:56:41;1.98;;;1.05;;
64915;SDS011;51427;-27.442;153.014;2023-05-29T01:59:08;8.98;;;4.70;;
64915;SDS011;51427;-27.442;153.014;2023-05-29T02:01:38;6.15;;;2.88;;
64915;SDS011;51427;-27.442;153.014;2023-05-29T02:04:06;1.33;;;0.50;;
64915;SDS011;51427;-27.442;153.014;2023-05-29T02:06:34;1.83;;;0.65;;
64915;SDS011;51427;-27.442;153.014;2023-05-29T02:09:02;0.50;;;0.50;;
64915;SDS011;51427;-27.442;153.014;2023-05-29T02:11:31;0.98;;;0.40;;
64915;SDS011;51427;-27.442;153.014;2023-05-29T02:13:59;1.55;;;0.63;;
64915;SDS011;51427;-27.442;153.014;2023-05-29T02:16:28;0.40;;;0.40;;
64915;SDS011;51427;-27.442;153.014;2023-05-29T02:19:00;0.50;;;0.40;;
64915;SDS011;51427;-27.442;153.014;2023-05-29T02:21:28;0.63;;;0.60;;
64915;SDS011;51427;-27.442;153.014;2023-05-29T02:23:55;3.83;;;0.98;;
64915;SDS011;51427;-27.442;153.014;2023-05-29T02:26:23;0.30;;;0.30;;
64915;SDS011;51427;-27.442;153.014;2023-05-29T02:28:51;0.77;;;0.40;;
64915;SDS011;51427;-27.442;153.014;2023-05-29T02:31:19;1.27;;;0.40;;
64915;SDS011;51427;-27.442;153.014;2023-05-29T02:33:46;0.95;;;0.70;;
64915;SDS011;51427;-27.442;153.014;2023-05-29T02:36:15;0.85;;;0.47;;
64915;SDS011;51427;-27.442;153.014;2023-05-29T02:38:42;1.52;;;0.80;;
64915;SDS011;51427;-27.442;153.014;2023-05-29T02:41:10;1.10;;;0.60;;
64915;SDS011;51427;-27.442;153.014;2023-05-29T02:43:38;0.60;;;0.60;;
64915;SDS011;51427;-27.442;153.014;2023-05-29T02:46:05;1.02;;;0.40;;
64915;SDS011;51427;-27.442;153.014;2023-05-29T02:48:33;0.65;;;0.43;;
64915;SDS011;51427;-27.442;153.014;2023-05-29T02:51:00;4.57;;;3.00;;
64915;SDS011;51427;-27.442;153.014;2023-05-29T02:53:28;1.50;;;0.70;;
64915;SDS011;51427;-27.442;153.014;2023-05-29T02:55:55;1.48;;;0.68;;
64915;SDS011;51427;-27.442;153.014;2023-05-29T02:58:23;1.58;;;0.50;;
64915;SDS011;51427;-27.442;153.014;2023-05-29T03:00:51;1.17;;;0.47;;
64915;SDS011;51427;-27.442;153.014;2023-05-29T03:03:18;1.75;;;0.60;;
64915;SDS011;51427;-27.442;153.014;2023-05-29T03:05:46;0.70;;;0.65;;
64915;SDS011;51427;-27.442;153.014;2023-05-29T03:08:14;2.22;;;0.73;;
64915;SDS011;51427;-27.442;153.014;2023-05-29T03:10:41;1.65;;;0.63;;
64915;SDS011;51427;-27.442;153.014;2023-05-29T03:13:10;0.70;;;0.40;;
64915;SDS011;51427;-27.442;153.014;2023-05-29T03:15:37;0.52;;;0.40;;
64915;SDS011;51427;-27.442;153.014;2023-05-29T03:18:05;0.40;;;0.40;;
64915;SDS011;51427;-27.442;153.014;2023-05-29T03:20:32;1.38;;;0.60;;
64915;SDS011;51427;-27.442;153.014;2023-05-29T03:23:01;2.03;;;0.40;;
64915;SDS011;51427;-27.442;153.014;2023-05-29T03:25:28;0.63;;;0.40;;
64915;SDS011;51427;-27.442;153.014;2023-05-29T03:27:56;1.25;;;0.52;;
64915;SDS011;51427;-27.442;153.014;2023-05-29T03:30:24;0.98;;;0.60;;
64915;SDS011;51427;-27.442;153.014;2023-05-29T03:32:51;0.68;;;0.45;;
64915;SDS011;51427;-27.442;153.014;2023-05-29T03:35:19;0.68;;;0.30;;
64915;SDS011;51427;-27.442;153.014;2023-05-29T03:37:46;1.27;;;0.40;;
64915;SDS011;51427;-27.442;153.014;2023-05-29T03:40:14;0.45;;;0.40;;
64915;SDS011;51427;-27.442;153.014;2023-05-29T03:42:42;2.67;;;0.40;;
64915;SDS011;51427;-27.442;153.014;2023-05-29T03:45:09;1.95;;;0.30;;
64915;SDS011;51427;-27.442;153.014;2023-05-29T03:47:37;1.70;;;1.30;;
64915;SDS011;51427;-27.442;153.014;2023-05-29T03:50:05;0.98;;;0.30;;
64915;SDS011;51427;-27.442;153.014;2023-05-29T03:52:33;0.57;;;0.40;;
64915;SDS011;51427;-27.442;153.014;2023-05-29T03:55:02;0.90;;;0.47;;
64915;SDS011;51427;-27.442;153.014;2023-05-29T03:57:29;2.83;;;0.65;;
64915;SDS011;51427;-27.442;153.014;2023-05-29T03:59:57;2.05;;;1.63;;
64915;SDS011;51427;-27.442;153.014;2023-05-29T04:02:24;0.98;;;0.60;;
64915;SDS011;51427;-27.442;153.014;2023-05-29T04:04:52;0.80;;;0.50;;
64915;SDS011;51427;-27.442;153.014;2023-05-29T04:07:21;1.45;;;0.90;;
64915;SDS011;51427;-27.442;153.014;2023-05-29T04:09:48;1.10;;;0.75;;
64915;SDS011;51427;-27.442;153.014;2023-05-29T04:12:16;1.45;;;1.05;;
64915;SDS011;51427;-27.442;153.014;2023-05-29T04:14:43;3.67;;;2.30;;
64915;SDS011;51427;-27.442;153.014;2023-05-29T04:17:11;0.50;;;0.50;;
64915;SDS011;51427;-27.442;153.014;2023-05-29T04:19:39;2.63;;;0.60;;
64915;SDS011;51427;-27.442;153.014;2023-05-29T04:22:06;2.75;;;0.63;;
64915;SDS011;51427;-27.442;153.014;2023-05-29T04:24:34;7.68;;;4.18;;
64915;SDS011;51427;-27.442;153.014;2023-05-29T04:27:01;3.13;;;2.03;;
64915;SDS011;51427;-27.442;153.014;2023-05-29T04:29:30;18.33;;;7.60;;
64915;SDS011;51427;-27.442;153.014;2023-05-29T04:31:59;10.52;;;3.97;;
64915;SDS011;51427;-27.442;153.014;2023-05-29T04:34:30;3.90;;;2.58;;
64915;SDS011;51427;-27.442;153.014;2023-05-29T04:36:58;2.28;;;1.20;;
64915;SDS011;51427;-27.442;153.014;2023-05-29T04:39:25;1.85;;;1.10;;
64915;SDS011;51427;-27.442;153.014;2023-05-29T04:41:53;1.92;;;0.57;;
64915;SDS011;51427;-27.442;153.014;2023-05-29T04:44:24;1.17;;;0.90;;
64915;SDS011;51427;-27.442;153.014;2023-05-29T04:46:52;1.55;;;0.88;;
64915;SDS011;51427;-27.442;153.014;2023-05-29T04:49:20;1.10;;;1.00;;
64915;SDS011;51427;-27.442;153.014;2023-05-29T04:51:48;1.80;;;1.23;;
64915;SDS011;51427;-27.442;153.014;2023-05-29T04:54:18;3.80;;;2.85;;
64915;SDS011;51427;-27.442;153.014;2023-05-29T04:56:46;6.82;;;2.72;;
64915;SDS011;51427;-27.442;153.014;2023-05-29T04:59:13;4.38;;;3.83;;
64915;SDS011;51427;-27.442;153.014;2023-05-29T05:01:41;5.07;;;4.60;;
64915;SDS011;51427;-27.442;153.014;2023-05-29T05:04:09;5.88;;;4.22;;
64915;SDS011;51427;-27.442;153.014;2023-05-29T05:06:37;7.13;;;4.70;;
64915;SDS011;51427;-27.442;153.014;2023-05-29T05:09:05;8.98;;;5.50;;
64915;SDS011;51427;-27.442;153.014;2023-05-29T05:11:32;8.40;;;6.63;;
64915;SDS011;51427;-27.442;153.014;2023-05-29T05:14:00;15.70;;;11.65;;
64915;SDS011;51427;-27.442;153.014;2023-05-29T05:16:27;20.83;;;15.23;;
64915;SDS011;51427;-27.442;153.014;2023-05-29T05:18:55;21.42;;;16.45;;
64915;SDS011;51427;-27.442;153.014;2023-05-29T05:21:22;20.83;;;14.40;;
64915;SDS011;51427;-27.442;153.014;2023-05-29T05:23:50;23.98;;;14.88;;
64915;SDS011;51427;-27.442;153.014;2023-05-29T05:26:18;19.88;;;14.88;;
64915;SDS011;51427;-27.442;153.014;2023-05-29T05:28:46;25.17;;;15.40;;
64915;SDS011;51427;-27.442;153.014;2023-05-29T05:31:13;21.75;;;15.30;;
64915;SDS011;51427;-27.442;153.014;2023-05-29T05:33:41;22.48;;;15.80;;
64915;SDS011;51427;-27.442;153.014;2023-05-29T05:36:09;21.83;;;16.42;;
64915;SDS011;51427;-27.442;153.014;2023-05-29T05:38:37;25.85;;;18.98;;
64915;SDS011;51427;-27.442;153.014;2023-05-29T05:41:09;31.20;;;23.30;;
64915;SDS011;51427;-27.442;153.014;2023-05-29T05:43:36;40.47;;;32.25;;
64915;SDS011;51427;-27.442;153.014;2023-05-29T05:46:04;47.30;;;38.50;;
64915;SDS011;51427;-27.442;153.014;2023-05-29T05:48:32;49.42;;;38.78;;
64915;SDS011;51427;-27.442;153.014;2023-05-29T05:51:00;47.38;;;37.53;;
64915;SDS011;51427;-27.442;153.014;2023-05-29T05:53:27;50.08;;;36.67;;
64915;SDS011;51427;-27.442;153.014;2023-05-29T05:55:55;46.05;;;36.42;;
64915;SDS011;51427;-27.442;153.014;2023-05-29T05:58:23;45.40;;;35.00;;
64915;SDS011;51427;-27.442;153.014;2023-05-29T06:00:50;43.33;;;33.17;;
64915;SDS011;51427;-27.442;153.014;2023-05-29T06:03:18;42.50;;;33.45;;
64915;SDS011;51427;-27.442;153.014;2023-05-29T06:05:46;41.40;;;31.27;;
64915;SDS011;51427;-27.442;153.014;2023-05-29T06:08:14;37.65;;;29.17;;
64915;SDS011;51427;-27.442;153.014;2023-05-29T06:10:41;33.28;;;26.27;;
64915;SDS011;51427;-27.442;153.014;2023-05-29T06:13:09;35.85;;;26.15;;
64915;SDS011;51427;-27.442;153.014;2023-05-29T06:15:38;29.88;;;23.00;;
64915;SDS011;51427;-27.442;153.014;2023-05-29T06:18:06;29.38;;;22.23;;
64915;SDS011;51427;-27.442;153.014;2023-05-29T06:20:33;83.50;;;59.97;;
64915;SDS011;51427;-27.442;153.014;2023-05-29T06:23:02;28.85;;;22.13;;
64915;SDS011;51427;-27.442;153.014;2023-05-29T06:25:29;27.60;;;20.98;;
64915;SDS011;51427;-27.442;153.014;2023-05-29T06:28:00;181.40;;;145.07;;
64915;SDS011;51427;-27.442;153.014;2023-05-29T06:30:31;107.50;;;80.20;;
64915;SDS011;51427;-27.442;153.014;2023-05-29T06:32:59;62.75;;;47.58;;
64915;SDS011;51427;-27.442;153.014;2023-05-29T06:35:27;42.45;;;33.38;;
64915;SDS011;51427;-27.442;153.014;2023-05-29T06:37:54;48.00;;;43.22;;
64915;SDS011;51427;-27.442;153.014;2023-05-29T06:40:22;28.98;;;23.10;;
64915;SDS011;51427;-27.442;153.014;2023-05-29T06:42:49;24.90;;;19.17;;
64915;SDS011;51427;-27.442;153.014;2023-05-29T06:45:17;25.77;;;17.30;;
64915;SDS011;51427;-27.442;153.014;2023-05-29T06:47:45;34.00;;;28.25;;
64915;SDS011;51427;-27.442;153.014;2023-05-29T06:50:13;25.75;;;22.15;;
64915;SDS011;51427;-27.442;153.014;2023-05-29T06:52:41;24.73;;;21.98;;
64915;SDS011;51427;-27.442;153.014;2023-05-29T06:55:08;25.38;;;20.83;;
64915;SDS011;51427;-27.442;153.014;2023-05-29T06:57:36;24.92;;;20.38;;
64915;SDS011;51427;-27.442;153.014;2023-05-29T07:00:04;24.77;;;18.35;;
64915;SDS011;51427;-27.442;153.014;2023-05-29T07:02:33;22.75;;;18.30;;
64915;SDS011;51427;-27.442;153.014;2023-05-29T07:05:01;24.15;;;16.77;;
64915;SDS011;51427;-27.442;153.014;2023-05-29T07:07:29;23.02;;;16.77;;
64915;SDS011;51427;-27.442;153.014;2023-05-29T07:09:56;22.23;;;17.20;;
64915;SDS011;51427;-27.442;153.014;2023-05-29T07:12:24;26.50;;;19.65;;
64915;SDS011;51427;-27.442;153.014;2023-05-29T07:14:51;23.80;;;18.90;;
64915;SDS011;51427;-27.442;153.014;2023-05-29T07:17:19;24.70;;;18.92;;
64915;SDS011;51427;-27.442;153.014;2023-05-29T07:19:47;28.75;;;21.63;;
64915;SDS011;51427;-27.442;153.014;2023-05-29T07:22:15;31.17;;;21.92;;
64915;SDS011;51427;-27.442;153.014;2023-05-29T07:24:43;29.50;;;21.20;;
64915;SDS011;51427;-27.442;153.014;2023-05-29T07:27:14;36.95;;;29.13;;
64915;SDS011;51427;-27.442;153.014;2023-05-29T07:29:42;25.95;;;21.10;;
64915;SDS011;51427;-27.442;153.014;2023-05-29T07:32:09;26.25;;;19.95;;
64915;SDS011;51427;-27.442;153.014;2023-05-29T07:34:37;25.77;;;18.95;;
64915;SDS011;51427;-27.442;153.014;2023-05-29T07:37:05;27.92;;;19.50;;
64915;SDS011;51427;-27.442;153.014;2023-05-29T07:39:34;28.40;;;19.95;;
64915;SDS011;51427;-27.442;153.014;2023-05-29T07:42:02;23.10;;;18.48;;
64915;SDS011;51427;-27.442;153.014;2023-05-29T07:44:31;25.17;;;19.45;;
64915;SDS011;51427;-27.442;153.014;2023-05-29T07:46:59;23.63;;;17.95;;
64915;SDS011;51427;-27.442;153.014;2023-05-29T07:49:28;27.33;;;19.58;;
64915;SDS011;51427;-27.442;153.014;2023-05-29T07:51:56;26.33;;;18.48;;
64915;SDS011;51427;-27.442;153.014;2023-05-29T07:54:23;27.15;;;19.35;;
64915;SDS011;51427;-27.442;153.014;2023-05-29T07:56:51;27.10;;;18.60;;
64915;SDS011;51427;-27.442;153.014;2023-05-29T07:59:18;29.08;;;20.27;;
64915;SDS011;51427;-27.442;153.014;2023-05-29T08:01:47;30.40;;;21.30;;
64915;SDS011;51427;-27.442;153.014;2023-05-29T08:04:15;29.73;;;21.58;;
64915;SDS011;51427;-27.442;153.014;2023-05-29T08:06:43;33.15;;;23.23;;
64915;SDS011;51427;-27.442;153.014;2023-05-29T08:09:11;30.98;;;19.85;;
64915;SDS011;51427;-27.442;153.014;2023-05-29T08:11:40;28.20;;;21.33;;
64915;SDS011;51427;-27.442;153.014;2023-05-29T08:14:08;29.08;;;21.05;;
64915;SDS011;51427;-27.442;153.014;2023-05-29T08:16:36;28.00;;;20.77;;
64915;SDS011;51427;-27.442;153.014;2023-05-29T08:19:03;28.95;;;20.38;;
64915;SDS011;51427;-27.442;153.014;2023-05-29T08:21:31;31.40;;;21.65;;
64915;SDS011;51427;-27.442;153.014;2023-05-29T08:23:59;36.70;;;25.17;;
64915;SDS011;51427;-27.442;153.014;2023-05-29T08:26:30;109.57;;;71.68;;
64915;SDS011;51427;-27.442;153.014;2023-05-29T08:28:58;33.63;;;25.42;;
64915;SDS011;51427;-27.442;153.014;2023-05-29T08:31:26;31.35;;;23.38;;
64915;SDS011;51427;-27.442;153.014;2023-05-29T08:33:56;31.92;;;23.92;;
64915;SDS011;51427;-27.442;153.014;2023-05-29T08:36:24;35.70;;;26.20;;
64915;SDS011;51427;-27.442;153.014;2023-05-29T08:38:52;33.42;;;23.67;;
64915;SDS011;51427;-27.442;153.014;2023-05-29T08:41:35;31.95;;;24.85;;
64915;SDS011;51427;-27.442;153.014;2023-05-29T08:44:21;33.38;;;25.25;;
64915;SDS011;51427;-27.442;153.014;2023-05-29T08:46:54;31.58;;;24.25;;
64915;SDS011;51427;-27.442;153.014;2023-05-29T08:49:23;32.13;;;26.30;;
64915;SDS011;51427;-27.442;153.014;2023-05-29T08:51:55;37.30;;;27.05;;
64915;SDS011;51427;-27.442;153.014;2023-05-29T08:54:32;41.00;;;30.48;;
64915;SDS011;51427;-27.442;153.014;2023-05-29T08:57:00;46.85;;;33.63;;
64915;SDS011;51427;-27.442;153.014;2023-05-29T08:59:29;44.30;;;33.95;;
64915;SDS011;51427;-27.442;153.014;2023-05-29T09:01:57;46.67;;;34.75;;
64915;SDS011;51427;-27.442;153.014;2023-05-29T09:04:25;49.83;;;34.55;;
64915;SDS011;51427;-27.442;153.014;2023-05-29T09:06:57;50.90;;;36.42;;
64915;SDS011;51427;-27.442;153.014;2023-05-29T09:09:29;53.10;;;40.00;;
64915;SDS011;51427;-27.442;153.014;2023-05-29T09:11:57;54.03;;;40.05;;
64915;SDS011;51427;-27.442;153.014;2023-05-29T09:14:43;52.60;;;41.05;;
64915;SDS011;51427;-27.442;153.014;2023-05-29T09:17:11;53.85;;;39.58;;
64915;SDS011;51427;-27.442;153.014;2023-05-29T09:19:41;51.08;;;35.65;;
64915;SDS011;51427;-27.442;153.014;2023-05-29T09:22:11;48.42;;;34.22;;
64915;SDS011;51427;-27.442;153.014;2023-05-29T09:24:43;47.03;;;34.85;;
64915;SDS011;51427;-27.442;153.014;2023-05-29T09:27:14;50.08;;;37.15;;
64915;SDS011;51427;-27.442;153.014;2023-05-29T09:29:44;51.72;;;37.20;;
64915;SDS011;51427;-27.442;153.014;2023-05-29T09:32:14;52.72;;;39.20;;
64915;SDS011;51427;-27.442;153.014;2023-05-29T09:34:43;64.20;;;55.65;;
64915;SDS011;51427;-27.442;153.014;2023-05-29T09:37:11;83.57;;;66.57;;
64915;SDS011;51427;-27.442;153.014;2023-05-29T09:42:13;64.68;;;47.22;;
64915;SDS011;51427;-27.442;153.014;2023-05-29T09:44:42;62.45;;;46.55;;
64915;SDS011;51427;-27.442;153.014;2023-05-29T09:47:19;66.15;;;47.60;;
64915;SDS011;51427;-27.442;153.014;2023-05-29T09:49:47;72.00;;;53.08;;
64915;SDS011;51427;-27.442;153.014;2023-05-29T09:52:15;71.47;;;53.42;;
64915;SDS011;51427;-27.442;153.014;2023-05-29T09:54:48;85.40;;;66.68;;
64915;SDS011;51427;-27.442;153.014;2023-05-29T09:57:17;87.70;;;64.57;;
64915;SDS011;51427;-27.442;153.014;2023-05-29T09:59:44;84.20;;;64.90;;
64915;SDS011;51427;-27.442;153.014;2023-05-29T10:02:17;98.57;;;73.97;;
64915;SDS011;51427;-27.442;153.014;2023-05-29T10:04:45;90.93;;;66.32;;
64915;SDS011;51427;-27.442;153.014;2023-05-29T10:10:15;91.93;;;68.38;;
64915;SDS011;51427;-27.442;153.014;2023-05-29T10:12:50;93.40;;;72.05;;
64915;SDS011;51427;-27.442;153.014;2023-05-29T10:15:18;177.82;;;122.03;;
64915;SDS011;51427;-27.442;153.014;2023-05-29T10:17:52;101.68;;;78.05;;
64915;SDS011;51427;-27.442;153.014;2023-05-29T10:20:23;94.50;;;75.03;;
64915;SDS011;51427;-27.442;153.014;2023-05-29T10:22:54;99.68;;;73.80;;
64915;SDS011;51427;-27.442;153.014;2023-05-29T10:25:25;99.18;;;75.72;;
64915;SDS011;51427;-27.442;153.014;2023-05-29T10:27:56;98.22;;;72.20;;
64915;SDS011;51427;-27.442;153.014;2023-05-29T10:35:48;95.85;;;68.30;;
64915;SDS011;51427;-27.442;153.014;2023-05-29T10:38:40;89.97;;;68.85;;
64915;SDS011;51427;-27.442;153.014;2023-05-29T10:43:57;103.35;;;77.55;;
64915;SDS011;51427;-27.442;153.014;2023-05-29T10:49:18;109.70;;;82.63;;
64915;SDS011;51427;-27.442;153.014;2023-05-29T10:51:46;103.72;;;81.13;;
64915;SDS011;51427;-27.442;153.014;2023-05-29T10:54:14;99.05;;;72.95;;
64915;SDS011;51427;-27.442;153.014;2023-05-29T10:56:44;91.45;;;71.22;;
64915;SDS011;51427;-27.442;153.014;2023-05-29T10:59:18;99.80;;;74.95;;
64915;SDS011;51427;-27.442;153.014;2023-05-29T11:01:46;116.88;;;87.82;;
64915;SDS011;51427;-27.442;153.014;2023-05-29T11:06:52;125.90;;;95.22;;
64915;SDS011;51427;-27.442;153.014;2023-05-29T11:14:54;124.70;;;92.60;;
64915;SDS011;51427;-27.442;153.014;2023-05-29T11:17:30;121.75;;;90.88;;
64915;SDS011;51427;-27.442;153.014;2023-05-29T11:20:05;123.93;;;94.18;;
64915;SDS011;51427;-27.442;153.014;2023-05-29T11:25:28;129.05;;;97.50;;
64915;SDS011;51427;-27.442;153.014;2023-05-29T11:27:59;126.63;;;96.85;;
64915;SDS011;51427;-27.442;153.014;2023-05-29T11:30:29;133.13;;;98.53;;
64915;SDS011;51427;-27.442;153.014;2023-05-29T11:33:00;131.75;;;101.47;;
64915;SDS011;51427;-27.442;153.014;2023-05-29T11:35:31;136.20;;;100.32;;
64915;SDS011;51427;-27.442;153.014;2023-05-29T11:38:01;131.70;;;101.78;;
64915;SDS011;51427;-27.442;153.014;2023-05-29T11:40:34;135.40;;;100.35;;
64915;SDS011;51427;-27.442;153.014;2023-05-29T11:43:04;128.70;;;99.85;;
64915;SDS011;51427;-27.442;153.014;2023-05-29T11:45:32;135.07;;;101.55;;
64915;SDS011;51427;-27.442;153.014;2023-05-29T11:48:01;135.98;;;101.85;;
64915;SDS011;51427;-27.442;153.014;2023-05-29T11:50:30;130.27;;;98.40;;
64915;SDS011;51427;-27.442;153.014;2023-05-29T11:52:59;130.82;;;99.20;;
64915;SDS011;51427;-27.442;153.014;2023-05-29T11:55:32;132.65;;;96.10;;
64915;SDS011;51427;-27.442;153.014;2023-05-29T11:58:00;126.90;;;94.03;;
64915;SDS011;51427;-27.442;153.014;2023-05-29T12:00:33;129.25;;;96.43;;
64915;SDS011;51427;-27.442;153.014;2023-05-29T12:03:03;124.03;;;88.47;;
64915;SDS011;51427;-27.442;153.014;2023-05-29T12:05:38;120.60;;;90.50;;
64915;SDS011;51427;-27.442;153.014;2023-05-29T12:08:21;114.55;;;87.28;;
64915;SDS011;51427;-27.442;153.014;2023-05-29T12:10:50;128.73;;;96.70;;
64915;SDS011;51427;-27.442;153.014;2023-05-29T12:13:19;130.32;;;98.45;;
64915;SDS011;51427;-27.442;153.014;2023-05-29T12:15:48;133.25;;;99.78;;
64915;SDS011;51427;-27.442;153.014;2023-05-29T12:18:18;133.93;;;103.07;;
64915;SDS011;51427;-27.442;153.014;2023-05-29T12:20:46;136.40;;;107.82;;
64915;SDS011;51427;-27.442;153.014;2023-05-29T12:23:14;141.95;;;108.18;;
64915;SDS011;51427;-27.442;153.014;2023-05-29T12:25:46;150.38;;;112.63;;
64915;SDS011;51427;-27.442;153.014;2023-05-29T12:28:17;153.15;;;116.38;;
64915;SDS011;51427;-27.442;153.014;2023-05-29T12:30:45;149.85;;;114.10;;
64915;SDS011;51427;-27.442;153.014;2023-05-29T12:33:25;141.13;;;106.53;;
64915;SDS011;51427;-27.442;153.014;2023-05-29T12:38:45;141.23;;;102.30;;
64915;SDS011;51427;-27.442;153.014;2023-05-29T12:43:55;143.60;;;105.63;;
64915;SDS011;51427;-27.442;153.014;2023-05-29T12:46:24;141.77;;;104.00;;
64915;SDS011;51427;-27.442;153.014;2023-05-29T12:48:56;141.55;;;106.38;;
64915;SDS011;51427;-27.442;153.014;2023-05-29T12:51:27;135.55;;;101.25;;
64915;SDS011;51427;-27.442;153.014;2023-05-29T12:53:55;132.55;;;98.88;;
64915;SDS011;51427;-27.442;153.014;2023-05-29T12:56:24;126.10;;;93.38;;
64915;SDS011;51427;-27.442;153.014;2023-05-29T12:58:52;124.13;;;89.82;;
64915;SDS011;51427;-27.442;153.014;2023-05-29T13:01:19;135.88;;;98.78;;
64915;SDS011;51427;-27.442;153.014;2023-05-29T13:03:51;128.63;;;96.88;;
64915;SDS011;51427;-27.442;153.014;2023-05-29T13:06:18;131.38;;;100.07;;
64915;SDS011;51427;-27.442;153.014;2023-05-29T13:08:46;154.45;;;110.85;;
64915;SDS011;51427;-27.442;153.014;2023-05-29T13:11:14;155.00;;;115.97;;
64915;SDS011;51427;-27.442;153.014;2023-05-29T13:13:42;162.73;;;121.72;;
64915;SDS011;51427;-27.442;153.014;2023-05-29T13:16:10;164.88;;;123.28;;
64915;SDS011;51427;-27.442;153.014;2023-05-29T13:18:38;184.43;;;132.25;;
64915;SDS011;51427;-27.442;153.014;2023-05-29T13:21:05;181.65;;;133.45;;
64915;SDS011;51427;-27.442;153.014;2023-05-29T13:23:36;186.38;;;135.88;;
64915;SDS011;51427;-27.442;153.014;2023-05-29T13:26:04;188.05;;;132.68;;
64915;SDS011;51427;-27.442;153.014;2023-05-29T13:28:32;187.15;;;133.07;;
64915;SDS011;51427;-27.442;153.014;2023-05-29T13:31:00;188.60;;;140.52;;
64915;SDS011;51427;-27.442;153.014;2023-05-29T13:33:28;181.63;;;135.93;;
64915;SDS011;51427;-27.442;153.014;2023-05-29T13:35:55;185.45;;;136.50;;
64915;SDS011;51427;-27.442;153.014;2023-05-29T13:38:23;188.73;;;138.25;;
64915;SDS011;51427;-27.442;153.014;2023-05-29T13:40:51;194.60;;;138.15;;
64915;SDS011;51427;-27.442;153.014;2023-05-29T13:43:18;187.73;;;139.25;;
64915;SDS011;51427;-27.442;153.014;2023-05-29T13:45:46;183.98;;;137.80;;
64915;SDS011;51427;-27.442;153.014;2023-05-29T13:48:14;184.68;;;137.07;;
64915;SDS011;51427;-27.442;153.014;2023-05-29T13:50:41;185.93;;;136.55;;
64915;SDS011;51427;-27.442;153.014;2023-05-29T13:53:12;185.93;;;137.13;;
64915;SDS011;51427;-27.442;153.014;2023-05-29T13:55:40;191.15;;;139.02;;
64915;SDS011;51427;-27.442;153.014;2023-05-29T13:58:10;181.43;;;136.65;;
64915;SDS011;51427;-27.442;153.014;2023-05-29T14:00:38;188.82;;;138.43;;
64915;SDS011;51427;-27.442;153.014;2023-05-29T14:03:11;192.25;;;139.10;;
64915;SDS011;51427;-27.442;153.014;2023-05-29T14:05:38;182.32;;;137.43;;
64915;SDS011;51427;-27.442;153.014;2023-05-29T14:08:06;189.20;;;136.32;;
64915;SDS011;51427;-27.442;153.014;2023-05-29T14:10:34;184.60;;;134.30;;
64915;SDS011;51427;-27.442;153.014;2023-05-29T14:13:07;184.57;;;135.23;;
64915;SDS011;51427;-27.442;153.014;2023-05-29T14:15:37;182.10;;;134.07;;
64915;SDS011;51427;-27.442;153.014;2023-05-29T14:18:07;187.70;;;136.43;;
64915;SDS011;51427;-27.442;153.014;2023-05-29T14:20:36;189.02;;;140.50;;
64915;SDS011;51427;-27.442;153.014;2023-05-29T14:23:03;188.50;;;140.77;;
64915;SDS011;51427;-27.442;153.014;2023-05-29T14:25:31;196.65;;;142.70;;
64915;SDS011;51427;-27.442;153.014;2023-05-29T14:28:02;192.27;;;141.80;;
64915;SDS011;51427;-27.442;153.014;2023-05-29T14:30:29;195.50;;;144.35;;
64915;SDS011;51427;-27.442;153.014;2023-05-29T14:32:57;191.35;;;140.27;;
64915;SDS011;51427;-27.442;153.014;2023-05-29T14:35:25;191.80;;;143.30;;
64915;SDS011;51427;-27.442;153.014;2023-05-29T14:37:53;192.32;;;143.73;;
64915;SDS011;51427;-27.442;153.014;2023-05-29T14:40:20;187.52;;;139.75;;
64915;SDS011;51427;-27.442;153.014;2023-05-29T14:42:48;190.82;;;139.38;;
64915;SDS011;51427;-27.442;153.014;2023-05-29T14:45:16;186.73;;;137.43;;
64915;SDS011;51427;-27.442;153.014;2023-05-29T14:47:47;180.65;;;134.13;;